Last Mistake — WDH2903 — position and weather

sailwx.info

Track history (hours):
 
Tides and Currents Weather Stations Pressure Air Temp Water Temp Dewpoint Dewpoint Depression Visibility Wind Speed Wind Dir Waves Ship Positions

Last Mistake

Owner: Brown, Robert L, Fairfax, VA. More information available from US FCC via Universal Licensing System.

Last reported at 2017-Nov-17 14:02 UTC. Time now 2017-Nov-24 00:23 UTC.
Position N 34°43' W 076°49'.

Length 16 m.

Type: Pleasure craft. MMSI: 367602360.

Date/timePositionNaut miles runAvg speedWind from/ knotsBaromVisibWave heightAir tempDewpointWater temp
2017-Nov-17 14:02N 34°43' W 076°49'0 7.3
2017-Nov-17 14:00N 34°43' W 076°49'4 7.4
2017-Nov-17 13:30N 34°43' W 076°44'3 5.2
2017-Nov-17 13:00N 34°44' W 076°41'2 4.9
2017-Nov-17 12:30N 34°47' W 076°41'3 5.8
2017-Nov-17 12:00N 34°49' W 076°41'2 0.1
2017-Nov-16 23:32N 34°51' W 076°42'0 0.0
2017-Nov-16 21:41N 34°51' W 076°41'0 0.0
2017-Nov-16 21:26N 34°51' W 076°41'0 0.0
2017-Nov-16 19:49N 34°51' W 076°42'  
2017-Nov-09 19:23N 36°45' W 076°18'2 4.9
2017-Nov-09 19:00N 36°47' W 076°18'3 5.8
2017-Nov-09 18:30N 36°49' W 076°17'  
Track history (hours):
 
Tides and Currents Weather Stations Pressure Air Temp Water Temp Dewpoint Dewpoint Depression Visibility Wind Speed Wind Dir Waves Ship Positions

Last Mistake

Owner: Brown, Robert L, Fairfax, VA. More information available from US FCC via Universal Licensing System.

Last reported at 2017-Nov-17 14:02 UTC. Time now 2017-Nov-24 00:23 UTC.
Position N 34°43' W 076°49'.

Length 16 m.

Type: Pleasure craft. MMSI: 367602360.

Date/timePositionNaut miles runAvg speedWind from/ knotsBaromVisibWave heightAir tempDewpointWater temp
2017-Nov-17 14:02N 34°43' W 076°49'0 7.3
2017-Nov-17 14:00N 34°43' W 076°49'4 7.4
2017-Nov-17 13:30N 34°43' W 076°44'3 5.2
2017-Nov-17 13:00N 34°44' W 076°41'2 4.9
2017-Nov-17 12:30N 34°47' W 076°41'3 5.8
2017-Nov-17 12:00N 34°49' W 076°41'2 0.1
2017-Nov-16 23:32N 34°51' W 076°42'0 0.0
2017-Nov-16 21:41N 34°51' W 076°41'0 0.0
2017-Nov-16 21:26N 34°51' W 076°41'0 0.0
2017-Nov-16 19:49N 34°51' W 076°42'  
2017-Nov-09 19:23N 36°45' W 076°18'2 4.9
2017-Nov-09 19:00N 36°47' W 076°18'3 5.8
2017-Nov-09 18:30N 36°49' W 076°17'  

Dump ship's entire track history